sensor_id;sensor_type;location;lat;lon;timestamp;P1;durP1;ratioP1;P2;durP2;ratioP2
13933;SDS011;7039;52.168;9.866;2023-05-19T00:00:37;9.10;;;3.80;;
13933;SDS011;7039;52.168;9.866;2023-05-19T02:02:32;7.53;;;2.50;;
13933;SDS011;7039;52.168;9.866;2023-05-19T02:22:58;5.60;;;2.50;;
13933;SDS011;7039;52.168;9.866;2023-05-19T02:30:43;6.93;;;2.90;;
13933;SDS011;7039;52.168;9.866;2023-05-19T02:33:26;7.40;;;3.27;;
13933;SDS011;7039;52.168;9.866;2023-05-19T02:43:56;8.80;;;3.00;;
13933;SDS011;7039;52.168;9.866;2023-05-19T03:34:12;5.83;;;3.50;;
13933;SDS011;7039;52.168;9.866;2023-05-19T05:12:22;9.97;;;4.50;;
13933;SDS011;7039;52.168;9.866;2023-05-19T05:21:43;9.07;;;4.47;;
13933;SDS011;7039;52.168;9.866;2023-05-19T05:25:08;9.23;;;4.30;;
13933;SDS011;7039;52.168;9.866;2023-05-19T05:33:05;8.23;;;4.40;;
13933;SDS011;7039;52.168;9.866;2023-05-19T05:54:51;9.40;;;4.60;;
13933;SDS011;7039;52.168;9.866;2023-05-19T06:42:35;11.27;;;4.37;;
13933;SDS011;7039;52.168;9.866;2023-05-19T06:45:01;11.73;;;4.97;;
13933;SDS011;7039;52.168;9.866;2023-05-19T06:47:28;9.30;;;5.17;;
13933;SDS011;7039;52.168;9.866;2023-05-19T06:49:54;19.87;;;4.83;;
13933;SDS011;7039;52.168;9.866;2023-05-19T06:52:21;9.50;;;4.93;;
13933;SDS011;7039;52.168;9.866;2023-05-19T06:54:48;13.67;;;4.27;;
13933;SDS011;7039;52.168;9.866;2023-05-19T06:57:14;8.17;;;4.97;;
13933;SDS011;7039;52.168;9.866;2023-05-19T06:59:42;10.00;;;4.40;;
13933;SDS011;7039;52.168;9.866;2023-05-19T07:02:10;13.17;;;4.93;;
13933;SDS011;7039;52.168;9.866;2023-05-19T07:04:37;11.33;;;4.30;;
13933;SDS011;7039;52.168;9.866;2023-05-19T07:07:04;7.37;;;4.00;;
13933;SDS011;7039;52.168;9.866;2023-05-19T07:09:30;10.27;;;4.60;;
13933;SDS011;7039;52.168;9.866;2023-05-19T07:11:57;9.33;;;4.67;;
13933;SDS011;7039;52.168;9.866;2023-05-19T07:14:23;10.30;;;4.77;;
13933;SDS011;7039;52.168;9.866;2023-05-19T07:16:51;10.60;;;4.70;;
13933;SDS011;7039;52.168;9.866;2023-05-19T07:19:17;13.90;;;4.47;;
13933;SDS011;7039;52.168;9.866;2023-05-19T07:21:44;39.03;;;5.77;;
13933;SDS011;7039;52.168;9.866;2023-05-19T07:24:11;11.47;;;5.27;;
13933;SDS011;7039;52.168;9.866;2023-05-19T07:26:37;10.63;;;4.30;;
13933;SDS011;7039;52.168;9.866;2023-05-19T07:29:04;14.40;;;4.60;;
13933;SDS011;7039;52.168;9.866;2023-05-19T07:31:31;13.47;;;4.10;;
13933;SDS011;7039;52.168;9.866;2023-05-19T07:33:58;10.23;;;4.30;;
13933;SDS011;7039;52.168;9.866;2023-05-19T07:36:25;11.60;;;4.33;;
13933;SDS011;7039;52.168;9.866;2023-05-19T07:38:52;11.43;;;4.37;;
13933;SDS011;7039;52.168;9.866;2023-05-19T07:41:18;13.63;;;4.20;;
13933;SDS011;7039;52.168;9.866;2023-05-19T07:43:45;9.07;;;4.23;;
13933;SDS011;7039;52.168;9.866;2023-05-19T07:46:12;9.33;;;4.43;;
13933;SDS011;7039;52.168;9.866;2023-05-19T07:48:38;10.07;;;4.37;;
13933;SDS011;7039;52.168;9.866;2023-05-19T07:51:06;10.30;;;4.37;;
13933;SDS011;7039;52.168;9.866;2023-05-19T07:53:34;15.87;;;4.40;;
13933;SDS011;7039;52.168;9.866;2023-05-19T07:56:00;10.33;;;4.80;;
13933;SDS011;7039;52.168;9.866;2023-05-19T07:58:27;9.07;;;4.20;;
13933;SDS011;7039;52.168;9.866;2023-05-19T08:00:55;9.57;;;4.00;;
13933;SDS011;7039;52.168;9.866;2023-05-19T08:03:22;8.63;;;3.50;;
13933;SDS011;7039;52.168;9.866;2023-05-19T08:05:48;10.57;;;3.70;;
13933;SDS011;7039;52.168;9.866;2023-05-19T08:08:16;11.73;;;3.90;;
13933;SDS011;7039;52.168;9.866;2023-05-19T08:10:43;13.07;;;3.73;;
13933;SDS011;7039;52.168;9.866;2023-05-19T08:13:10;8.60;;;3.87;;
13933;SDS011;7039;52.168;9.866;2023-05-19T08:15:36;9.83;;;3.80;;
13933;SDS011;7039;52.168;9.866;2023-05-19T08:18:03;12.20;;;4.13;;
13933;SDS011;7039;52.168;9.866;2023-05-19T08:20:29;17.07;;;3.87;;
13933;SDS011;7039;52.168;9.866;2023-05-19T08:22:56;10.27;;;3.40;;
13933;SDS011;7039;52.168;9.866;2023-05-19T08:25:24;11.27;;;3.70;;
13933;SDS011;7039;52.168;9.866;2023-05-19T08:27:50;6.53;;;3.30;;
13933;SDS011;7039;52.168;9.866;2023-05-19T08:30:17;6.80;;;3.47;;
13933;SDS011;7039;52.168;9.866;2023-05-19T08:32:43;8.73;;;3.67;;
13933;SDS011;7039;52.168;9.866;2023-05-19T08:35:10;12.33;;;4.03;;
13933;SDS011;7039;52.168;9.866;2023-05-19T08:37:36;13.90;;;3.90;;
13933;SDS011;7039;52.168;9.866;2023-05-19T08:40:03;7.97;;;3.43;;
13933;SDS011;7039;52.168;9.866;2023-05-19T08:42:32;11.00;;;3.43;;
13933;SDS011;7039;52.168;9.866;2023-05-19T08:44:58;9.60;;;3.60;;
13933;SDS011;7039;52.168;9.866;2023-05-19T08:47:25;8.43;;;3.43;;
13933;SDS011;7039;52.168;9.866;2023-05-19T08:49:54;8.63;;;3.73;;
13933;SDS011;7039;52.168;9.866;2023-05-19T08:52:31;7.70;;;3.63;;
13933;SDS011;7039;52.168;9.866;2023-05-19T08:55:07;9.83;;;3.30;;
13933;SDS011;7039;52.168;9.866;2023-05-19T08:57:39;10.10;;;3.50;;
13933;SDS011;7039;52.168;9.866;2023-05-19T09:00:07;13.43;;;4.40;;
13933;SDS011;7039;52.168;9.866;2023-05-19T09:02:36;9.10;;;3.77;;
13933;SDS011;7039;52.168;9.866;2023-05-19T09:05:03;12.17;;;3.43;;
13933;SDS011;7039;52.168;9.866;2023-05-19T09:07:31;13.40;;;3.40;;
13933;SDS011;7039;52.168;9.866;2023-05-19T09:09:59;6.60;;;3.40;;
13933;SDS011;7039;52.168;9.866;2023-05-19T09:12:25;11.00;;;3.53;;
13933;SDS011;7039;52.168;9.866;2023-05-19T09:14:53;10.27;;;3.50;;
13933;SDS011;7039;52.168;9.866;2023-05-19T09:17:21;8.87;;;3.50;;
13933;SDS011;7039;52.168;9.866;2023-05-19T09:19:48;8.00;;;3.97;;
13933;SDS011;7039;52.168;9.866;2023-05-19T09:22:15;7.40;;;3.90;;
13933;SDS011;7039;52.168;9.866;2023-05-19T09:24:43;13.17;;;4.17;;
13933;SDS011;7039;52.168;9.866;2023-05-19T09:27:10;10.63;;;3.93;;
13933;SDS011;7039;52.168;9.866;2023-05-19T09:29:39;9.00;;;3.73;;
13933;SDS011;7039;52.168;9.866;2023-05-19T09:32:08;8.97;;;3.40;;
13933;SDS011;7039;52.168;9.866;2023-05-19T09:34:38;7.43;;;3.50;;
13933;SDS011;7039;52.168;9.866;2023-05-19T09:37:06;10.03;;;3.47;;
13933;SDS011;7039;52.168;9.866;2023-05-19T09:39:33;5.90;;;2.97;;
13933;SDS011;7039;52.168;9.866;2023-05-19T09:41:59;7.23;;;2.90;;
13933;SDS011;7039;52.168;9.866;2023-05-19T09:44:30;7.13;;;3.70;;
13933;SDS011;7039;52.168;9.866;2023-05-19T09:46:57;7.70;;;3.60;;
13933;SDS011;7039;52.168;9.866;2023-05-19T09:49:27;9.30;;;3.57;;
13933;SDS011;7039;52.168;9.866;2023-05-19T09:51:55;8.93;;;3.70;;
13933;SDS011;7039;52.168;9.866;2023-05-19T09:54:23;8.07;;;3.60;;
13933;SDS011;7039;52.168;9.866;2023-05-19T09:56:56;7.10;;;3.13;;
13933;SDS011;7039;52.168;9.866;2023-05-19T09:59:24;9.23;;;3.27;;
13933;SDS011;7039;52.168;9.866;2023-05-19T10:01:52;9.23;;;3.50;;
13933;SDS011;7039;52.168;9.866;2023-05-19T10:04:21;6.23;;;3.17;;
13933;SDS011;7039;52.168;9.866;2023-05-19T10:06:50;8.93;;;3.23;;
13933;SDS011;7039;52.168;9.866;2023-05-19T10:09:19;6.33;;;3.27;;
13933;SDS011;7039;52.168;9.866;2023-05-19T10:11:48;4.67;;;2.90;;
13933;SDS011;7039;52.168;9.866;2023-05-19T10:14:18;5.40;;;3.20;;
13933;SDS011;7039;52.168;9.866;2023-05-19T10:16:45;9.50;;;3.10;;
13933;SDS011;7039;52.168;9.866;2023-05-19T10:19:15;7.27;;;3.60;;
13933;SDS011;7039;52.168;9.866;2023-05-19T10:21:45;7.40;;;2.93;;
13933;SDS011;7039;52.168;9.866;2023-05-19T10:24:18;9.87;;;3.50;;
13933;SDS011;7039;52.168;9.866;2023-05-19T10:26:45;6.00;;;3.37;;
13933;SDS011;7039;52.168;9.866;2023-05-19T10:29:22;4.50;;;2.70;;
13933;SDS011;7039;52.168;9.866;2023-05-19T10:31:53;5.93;;;2.57;;
13933;SDS011;7039;52.168;9.866;2023-05-19T10:37:28;5.80;;;2.63;;
13933;SDS011;7039;52.168;9.866;2023-05-19T10:40:06;7.07;;;2.70;;
13933;SDS011;7039;52.168;9.866;2023-05-19T10:42:39;10.43;;;3.03;;
13933;SDS011;7039;52.168;9.866;2023-05-19T10:45:12;9.47;;;3.23;;
13933;SDS011;7039;52.168;9.866;2023-05-19T10:47:42;6.20;;;2.37;;
13933;SDS011;7039;52.168;9.866;2023-05-19T10:50:09;3.97;;;2.30;;
13933;SDS011;7039;52.168;9.866;2023-05-19T10:52:37;4.43;;;2.53;;
13933;SDS011;7039;52.168;9.866;2023-05-19T10:55:07;4.20;;;2.10;;
13933;SDS011;7039;52.168;9.866;2023-05-19T10:57:52;5.47;;;2.37;;
13933;SDS011;7039;52.168;9.866;2023-05-19T11:00:29;4.80;;;2.40;;
13933;SDS011;7039;52.168;9.866;2023-05-19T11:03:10;6.10;;;2.70;;
13933;SDS011;7039;52.168;9.866;2023-05-19T11:05:38;6.80;;;2.50;;
13933;SDS011;7039;52.168;9.866;2023-05-19T11:08:05;3.43;;;2.13;;
13933;SDS011;7039;52.168;9.866;2023-05-19T11:10:33;5.80;;;2.20;;
13933;SDS011;7039;52.168;9.866;2023-05-19T11:13:00;5.67;;;2.40;;
13933;SDS011;7039;52.168;9.866;2023-05-19T11:15:27;3.57;;;2.23;;
13933;SDS011;7039;52.168;9.866;2023-05-19T11:17:53;2.90;;;1.93;;
13933;SDS011;7039;52.168;9.866;2023-05-19T11:20:21;6.47;;;2.00;;
13933;SDS011;7039;52.168;9.866;2023-05-19T11:23:04;5.10;;;2.00;;
13933;SDS011;7039;52.168;9.866;2023-05-19T11:25:43;4.67;;;2.40;;
13933;SDS011;7039;52.168;9.866;2023-05-19T11:28:11;4.90;;;1.97;;
13933;SDS011;7039;52.168;9.866;2023-05-19T11:30:41;2.83;;;2.00;;
13933;SDS011;7039;52.168;9.866;2023-05-19T11:33:09;3.50;;;2.07;;
13933;SDS011;7039;52.168;9.866;2023-05-19T11:35:37;5.27;;;1.80;;
13933;SDS011;7039;52.168;9.866;2023-05-19T11:38:04;5.83;;;2.00;;
13933;SDS011;7039;52.168;9.866;2023-05-19T11:40:31;2.67;;;1.97;;
13933;SDS011;7039;52.168;9.866;2023-05-19T11:42:59;11.87;;;2.27;;
13933;SDS011;7039;52.168;9.866;2023-05-19T11:45:27;4.23;;;1.40;;
13933;SDS011;7039;52.168;9.866;2023-05-19T11:47:56;4.30;;;2.00;;
13933;SDS011;7039;52.168;9.866;2023-05-19T11:50:23;11.17;;;1.90;;
13933;SDS011;7039;52.168;9.866;2023-05-19T11:52:50;5.00;;;1.80;;
13933;SDS011;7039;52.168;9.866;2023-05-19T11:55:17;3.80;;;1.70;;
13933;SDS011;7039;52.168;9.866;2023-05-19T11:57:55;3.80;;;1.70;;
13933;SDS011;7039;52.168;9.866;2023-05-19T12:00:25;4.37;;;1.90;;
13933;SDS011;7039;52.168;9.866;2023-05-19T12:02:51;2.63;;;1.63;;
13933;SDS011;7039;52.168;9.866;2023-05-19T12:05:18;4.73;;;2.27;;
13933;SDS011;7039;52.168;9.866;2023-05-19T12:07:46;4.33;;;1.93;;
13933;SDS011;7039;52.168;9.866;2023-05-19T12:10:13;2.47;;;1.70;;
13933;SDS011;7039;52.168;9.866;2023-05-19T12:12:40;4.43;;;1.60;;
13933;SDS011;7039;52.168;9.866;2023-05-19T12:15:09;4.40;;;1.60;;
13933;SDS011;7039;52.168;9.866;2023-05-19T12:17:38;3.87;;;1.60;;
13933;SDS011;7039;52.168;9.866;2023-05-19T12:20:05;6.97;;;1.80;;
13933;SDS011;7039;52.168;9.866;2023-05-19T12:22:33;5.10;;;1.67;;
13933;SDS011;7039;52.168;9.866;2023-05-19T12:25:00;3.60;;;1.40;;
13933;SDS011;7039;52.168;9.866;2023-05-19T12:27:28;6.63;;;2.10;;
13933;SDS011;7039;52.168;9.866;2023-05-19T12:29:55;8.75;;;2.08;;
13933;SDS011;7039;52.168;9.866;2023-05-19T12:32:22;5.07;;;1.85;;
13933;SDS011;7039;52.168;9.866;2023-05-19T12:34:50;5.07;;;1.80;;
13933;SDS011;7039;52.168;9.866;2023-05-19T12:37:17;4.38;;;1.70;;
13933;SDS011;7039;52.168;9.866;2023-05-19T12:39:44;3.67;;;2.05;;
13933;SDS011;7039;52.168;9.866;2023-05-19T12:42:11;2.80;;;1.60;;
13933;SDS011;7039;52.168;9.866;2023-05-19T12:44:37;6.38;;;1.90;;
13933;SDS011;7039;52.168;9.866;2023-05-19T12:47:07;9.32;;;2.35;;
13933;SDS011;7039;52.168;9.866;2023-05-19T12:49:34;4.82;;;2.33;;
13933;SDS011;7039;52.168;9.866;2023-05-19T12:52:02;2.58;;;1.70;;
13933;SDS011;7039;52.168;9.866;2023-05-19T12:54:31;4.47;;;1.65;;
13933;SDS011;7039;52.168;9.866;2023-05-19T12:56:58;2.72;;;1.48;;
13933;SDS011;7039;52.168;9.866;2023-05-19T13:02:25;5.30;;;1.40;;
13933;SDS011;7039;52.168;9.866;2023-05-19T13:04:51;2.77;;;1.30;;
13933;SDS011;7039;52.168;9.866;2023-05-19T13:07:19;3.00;;;1.38;;
13933;SDS011;7039;52.168;9.866;2023-05-19T13:09:46;2.65;;;1.42;;
13933;SDS011;7039;52.168;9.866;2023-05-19T13:12:13;5.70;;;1.70;;
13933;SDS011;7039;52.168;9.866;2023-05-19T13:14:40;6.78;;;1.85;;
13933;SDS011;7039;52.168;9.866;2023-05-19T13:17:07;3.30;;;1.40;;
13933;SDS011;7039;52.168;9.866;2023-05-19T13:19:34;3.20;;;1.50;;
13933;SDS011;7039;52.168;9.866;2023-05-19T13:22:00;5.55;;;1.75;;
13933;SDS011;7039;52.168;9.866;2023-05-19T13:24:28;4.35;;;1.50;;
13933;SDS011;7039;52.168;9.866;2023-05-19T13:26:55;8.52;;;1.40;;
13933;SDS011;7039;52.168;9.866;2023-05-19T13:29:22;2.75;;;1.35;;
13933;SDS011;7039;52.168;9.866;2023-05-19T13:31:48;2.58;;;1.65;;
13933;SDS011;7039;52.168;9.866;2023-05-19T13:34:14;2.38;;;1.50;;
13933;SDS011;7039;52.168;9.866;2023-05-19T13:36:43;3.28;;;1.35;;
13933;SDS011;7039;52.168;9.866;2023-05-19T13:39:12;2.67;;;1.40;;
13933;SDS011;7039;52.168;9.866;2023-05-19T13:41:39;2.72;;;1.60;;
13933;SDS011;7039;52.168;9.866;2023-05-19T13:44:06;4.20;;;1.70;;
13933;SDS011;7039;52.168;9.866;2023-05-19T13:46:32;4.25;;;1.70;;
13933;SDS011;7039;52.168;9.866;2023-05-19T13:48:59;1.83;;;1.50;;
13933;SDS011;7039;52.168;9.866;2023-05-19T13:51:25;7.35;;;1.60;;
13933;SDS011;7039;52.168;9.866;2023-05-19T13:53:52;3.00;;;1.42;;
13933;SDS011;7039;52.168;9.866;2023-05-19T13:56:18;4.88;;;1.52;;
13933;SDS011;7039;52.168;9.866;2023-05-19T13:58:46;2.33;;;1.67;;
13933;SDS011;7039;52.168;9.866;2023-05-19T14:01:12;2.75;;;1.50;;
13933;SDS011;7039;52.168;9.866;2023-05-19T14:03:39;2.90;;;1.70;;
13933;SDS011;7039;52.168;9.866;2023-05-19T14:06:05;2.00;;;1.52;;
13933;SDS011;7039;52.168;9.866;2023-05-19T14:08:33;3.30;;;1.50;;
13933;SDS011;7039;52.168;9.866;2023-05-19T14:11:00;5.00;;;1.80;;
13933;SDS011;7039;52.168;9.866;2023-05-19T14:13:26;2.95;;;1.83;;
13933;SDS011;7039;52.168;9.866;2023-05-19T14:15:54;2.25;;;1.60;;
13933;SDS011;7039;52.168;9.866;2023-05-19T14:18:21;5.28;;;2.30;;
13933;SDS011;7039;52.168;9.866;2023-05-19T14:20:47;4.82;;;2.05;;
13933;SDS011;7039;52.168;9.866;2023-05-19T14:23:14;3.17;;;2.13;;
13933;SDS011;7039;52.168;9.866;2023-05-19T14:25:41;4.63;;;2.15;;
13933;SDS011;7039;52.168;9.866;2023-05-19T14:28:07;1.67;;;1.48;;
13933;SDS011;7039;52.168;9.866;2023-05-19T14:30:34;1.75;;;1.35;;
13933;SDS011;7039;52.168;9.866;2023-05-19T14:33:02;2.60;;;2.30;;
13933;SDS011;7039;52.168;9.866;2023-05-19T14:35:29;7.38;;;1.60;;
13933;SDS011;7039;52.168;9.866;2023-05-19T14:37:55;4.63;;;1.70;;
13933;SDS011;7039;52.168;9.866;2023-05-19T14:40:22;2.30;;;1.75;;
13933;SDS011;7039;52.168;9.866;2023-05-19T14:42:48;5.38;;;1.80;;
13933;SDS011;7039;52.168;9.866;2023-05-19T14:45:15;12.65;;;1.98;;
13933;SDS011;7039;52.168;9.866;2023-05-19T14:47:41;3.85;;;1.60;;
13933;SDS011;7039;52.168;9.866;2023-05-19T14:50:09;3.72;;;1.70;;
13933;SDS011;7039;52.168;9.866;2023-05-19T14:52:36;3.58;;;1.75;;
13933;SDS011;7039;52.168;9.866;2023-05-19T14:55:03;6.03;;;2.17;;
13933;SDS011;7039;52.168;9.866;2023-05-19T14:57:29;3.63;;;2.10;;
13933;SDS011;7039;52.168;9.866;2023-05-19T14:59:56;5.45;;;2.17;;
13933;SDS011;7039;52.168;9.866;2023-05-19T15:02:22;7.78;;;1.88;;
13933;SDS011;7039;52.168;9.866;2023-05-19T15:04:49;13.23;;;2.15;;
13933;SDS011;7039;52.168;9.866;2023-05-19T15:07:16;4.03;;;1.58;;
13933;SDS011;7039;52.168;9.866;2023-05-19T15:09:43;2.95;;;1.73;;
13933;SDS011;7039;52.168;9.866;2023-05-19T15:12:10;2.90;;;1.85;;
13933;SDS011;7039;52.168;9.866;2023-05-19T15:14:36;3.72;;;1.65;;
13933;SDS011;7039;52.168;9.866;2023-05-19T15:17:03;4.57;;;2.75;;
13933;SDS011;7039;52.168;9.866;2023-05-19T15:19:29;2.22;;;1.70;;
13933;SDS011;7039;52.168;9.866;2023-05-19T15:21:56;5.20;;;1.55;;
13933;SDS011;7039;52.168;9.866;2023-05-19T15:24:24;1.85;;;1.60;;
13933;SDS011;7039;52.168;9.866;2023-05-19T15:26:51;6.43;;;1.90;;
13933;SDS011;7039;52.168;9.866;2023-05-19T15:29:19;3.78;;;1.52;;
13933;SDS011;7039;52.168;9.866;2023-05-19T15:31:48;3.92;;;1.88;;
13933;SDS011;7039;52.168;9.866;2023-05-19T15:34:14;4.25;;;1.60;;
13933;SDS011;7039;52.168;9.866;2023-05-19T15:36:41;3.17;;;1.75;;
13933;SDS011;7039;52.168;9.866;2023-05-19T15:39:07;4.80;;;4.07;;
13933;SDS011;7039;52.168;9.866;2023-05-19T15:41:36;5.40;;;1.75;;
13933;SDS011;7039;52.168;9.866;2023-05-19T15:44:02;6.32;;;2.92;;
13933;SDS011;7039;52.168;9.866;2023-05-19T15:46:30;4.10;;;2.60;;
13933;SDS011;7039;52.168;9.866;2023-05-19T15:48:57;6.13;;;3.15;;
13933;SDS011;7039;52.168;9.866;2023-05-19T15:51:24;3.75;;;2.17;;
13933;SDS011;7039;52.168;9.866;2023-05-19T15:53:50;4.82;;;3.22;;
13933;SDS011;7039;52.168;9.866;2023-05-19T15:56:17;4.15;;;2.90;;
13933;SDS011;7039;52.168;9.866;2023-05-19T15:58:45;4.22;;;2.28;;
13933;SDS011;7039;52.168;9.866;2023-05-19T16:01:12;3.25;;;1.77;;
13933;SDS011;7039;52.168;9.866;2023-05-19T16:03:39;2.75;;;1.35;;
13933;SDS011;7039;52.168;9.866;2023-05-19T16:06:05;2.83;;;1.55;;
13933;SDS011;7039;52.168;9.866;2023-05-19T16:08:32;1.75;;;1.45;;
13933;SDS011;7039;52.168;9.866;2023-05-19T16:10:58;2.72;;;1.80;;
13933;SDS011;7039;52.168;9.866;2023-05-19T16:13:24;3.05;;;1.38;;
13933;SDS011;7039;52.168;9.866;2023-05-19T16:15:52;2.60;;;1.52;;
13933;SDS011;7039;52.168;9.866;2023-05-19T16:18:19;3.43;;;1.60;;
13933;SDS011;7039;52.168;9.866;2023-05-19T16:20:45;4.73;;;1.60;;
13933;SDS011;7039;52.168;9.866;2023-05-19T16:23:12;4.20;;;1.40;;
13933;SDS011;7039;52.168;9.866;2023-05-19T16:25:38;2.50;;;1.50;;
13933;SDS011;7039;52.168;9.866;2023-05-19T16:28:05;1.93;;;1.20;;
13933;SDS011;7039;52.168;9.866;2023-05-19T16:30:31;3.78;;;1.88;;
13933;SDS011;7039;52.168;9.866;2023-05-19T16:32:59;3.72;;;1.58;;
13933;SDS011;7039;52.168;9.866;2023-05-19T16:35:26;2.22;;;1.65;;
13933;SDS011;7039;52.168;9.866;2023-05-19T16:37:53;5.10;;;1.73;;
13933;SDS011;7039;52.168;9.866;2023-05-19T16:40:19;8.60;;;1.80;;
13933;SDS011;7039;52.168;9.866;2023-05-19T16:42:46;2.10;;;1.65;;
13933;SDS011;7039;52.168;9.866;2023-05-19T16:45:12;4.13;;;1.60;;
13933;SDS011;7039;52.168;9.866;2023-05-19T16:47:41;6.60;;;4.57;;
13933;SDS011;7039;52.168;9.866;2023-05-19T16:50:09;10.25;;;9.23;;
13933;SDS011;7039;52.168;9.866;2023-05-19T16:52:38;6.22;;;5.00;;
13933;SDS011;7039;52.168;9.866;2023-05-19T16:55:05;4.67;;;3.77;;
13933;SDS011;7039;52.168;9.866;2023-05-19T16:57:32;4.77;;;3.33;;
13933;SDS011;7039;52.168;9.866;2023-05-19T16:59:59;8.93;;;5.57;;
13933;SDS011;7039;52.168;9.866;2023-05-19T17:02:25;11.27;;;6.57;;
13933;SDS011;7039;52.168;9.866;2023-05-19T17:04:52;8.30;;;3.13;;
13933;SDS011;7039;52.168;9.866;2023-05-19T17:07:21;3.87;;;2.50;;
13933;SDS011;7039;52.168;9.866;2023-05-19T17:09:47;6.33;;;2.30;;
13933;SDS011;7039;52.168;9.866;2023-05-19T17:12:15;3.83;;;1.93;;
13933;SDS011;7039;52.168;9.866;2023-05-19T17:14:41;2.83;;;1.90;;
13933;SDS011;7039;52.168;9.866;2023-05-19T17:17:08;5.33;;;2.93;;
13933;SDS011;7039;52.168;9.866;2023-05-19T17:19:35;2.40;;;1.87;;
13933;SDS011;7039;52.168;9.866;2023-05-19T17:22:01;5.87;;;2.67;;
13933;SDS011;7039;52.168;9.866;2023-05-19T17:24:31;5.83;;;2.20;;
13933;SDS011;7039;52.168;9.866;2023-05-19T17:26:58;13.73;;;7.47;;
13933;SDS011;7039;52.168;9.866;2023-05-19T17:29:24;4.67;;;3.23;;
13933;SDS011;7039;52.168;9.866;2023-05-19T17:31:51;5.17;;;3.00;;
13933;SDS011;7039;52.168;9.866;2023-05-19T17:34:18;6.33;;;2.53;;
13933;SDS011;7039;52.168;9.866;2023-05-19T17:36:45;4.13;;;2.70;;
13933;SDS011;7039;52.168;9.866;2023-05-19T17:39:12;8.47;;;3.10;;
13933;SDS011;7039;52.168;9.866;2023-05-19T17:41:40;4.73;;;2.83;;
13933;SDS011;7039;52.168;9.866;2023-05-19T17:44:07;3.60;;;2.20;;
13933;SDS011;7039;52.168;9.866;2023-05-19T17:46:33;2.77;;;2.03;;
13933;SDS011;7039;52.168;9.866;2023-05-19T17:49:02;3.23;;;1.90;;
13933;SDS011;7039;52.168;9.866;2023-05-19T17:51:29;2.60;;;2.00;;
13933;SDS011;7039;52.168;9.866;2023-05-19T17:53:56;2.87;;;1.80;;
13933;SDS011;7039;52.168;9.866;2023-05-19T17:56:23;7.87;;;1.97;;
13933;SDS011;7039;52.168;9.866;2023-05-19T17:58:53;2.63;;;1.70;;
13933;SDS011;7039;52.168;9.866;2023-05-19T18:01:20;3.77;;;1.77;;
13933;SDS011;7039;52.168;9.866;2023-05-19T18:03:49;2.70;;;1.80;;
13933;SDS011;7039;52.168;9.866;2023-05-19T18:06:16;2.50;;;1.97;;
13933;SDS011;7039;52.168;9.866;2023-05-19T18:08:45;4.30;;;1.67;;
13933;SDS011;7039;52.168;9.866;2023-05-19T18:11:14;2.30;;;1.77;;
13933;SDS011;7039;52.168;9.866;2023-05-19T18:13:41;3.07;;;1.70;;
13933;SDS011;7039;52.168;9.866;2023-05-19T18:16:10;5.10;;;1.70;;
13933;SDS011;7039;52.168;9.866;2023-05-19T18:18:37;2.87;;;1.60;;
13933;SDS011;7039;52.168;9.866;2023-05-19T18:21:07;9.40;;;1.83;;
13933;SDS011;7039;52.168;9.866;2023-05-19T18:23:38;1.70;;;1.60;;
13933;SDS011;7039;52.168;9.866;2023-05-19T18:26:04;5.23;;;2.10;;
13933;SDS011;7039;52.168;9.866;2023-05-19T18:28:31;3.83;;;2.20;;
13933;SDS011;7039;52.168;9.866;2023-05-19T18:30:58;3.10;;;2.00;;
13933;SDS011;7039;52.168;9.866;2023-05-19T18:33:26;2.90;;;1.70;;
13933;SDS011;7039;52.168;9.866;2023-05-19T18:35:52;2.43;;;1.73;;
13933;SDS011;7039;52.168;9.866;2023-05-19T18:38:19;2.73;;;1.97;;
13933;SDS011;7039;52.168;9.866;2023-05-19T18:40:47;1.70;;;1.60;;
13933;SDS011;7039;52.168;9.866;2023-05-19T18:43:14;5.73;;;2.03;;
13933;SDS011;7039;52.168;9.866;2023-05-19T18:45:41;3.83;;;1.90;;
13933;SDS011;7039;52.168;9.866;2023-05-19T18:48:08;3.00;;;1.60;;
13933;SDS011;7039;52.168;9.866;2023-05-19T18:50:36;2.87;;;1.47;;
13933;SDS011;7039;52.168;9.866;2023-05-19T18:53:02;2.20;;;1.80;;
13933;SDS011;7039;52.168;9.866;2023-05-19T18:55:29;4.03;;;2.27;;
13933;SDS011;7039;52.168;9.866;2023-05-19T18:57:55;2.40;;;1.80;;
13933;SDS011;7039;52.168;9.866;2023-05-19T19:00:22;2.73;;;2.10;;
13933;SDS011;7039;52.168;9.866;2023-05-19T19:02:49;2.97;;;2.10;;
13933;SDS011;7039;52.168;9.866;2023-05-19T19:05:16;4.63;;;1.83;;
13933;SDS011;7039;52.168;9.866;2023-05-19T19:07:44;3.23;;;1.80;;
13933;SDS011;7039;52.168;9.866;2023-05-19T19:10:10;4.33;;;1.80;;
13933;SDS011;7039;52.168;9.866;2023-05-19T19:12:39;2.07;;;1.77;;
13933;SDS011;7039;52.168;9.866;2023-05-19T19:15:05;2.60;;;1.80;;
13933;SDS011;7039;52.168;9.866;2023-05-19T19:17:32;3.30;;;1.70;;
13933;SDS011;7039;52.168;9.866;2023-05-19T19:19:59;2.93;;;1.80;;
13933;SDS011;7039;52.168;9.866;2023-05-19T19:22:25;1.90;;;1.57;;
13933;SDS011;7039;52.168;9.866;2023-05-19T19:24:53;19.03;;;2.00;;
13933;SDS011;7039;52.168;9.866;2023-05-19T19:27:20;6.30;;;1.80;;
13933;SDS011;7039;52.168;9.866;2023-05-19T19:29:48;2.00;;;1.57;;
13933;SDS011;7039;52.168;9.866;2023-05-19T19:32:15;1.50;;;1.40;;
13933;SDS011;7039;52.168;9.866;2023-05-19T19:34:41;6.97;;;1.87;;
13933;SDS011;7039;52.168;9.866;2023-05-19T19:37:08;3.40;;;2.60;;
13933;SDS011;7039;52.168;9.866;2023-05-19T19:39:35;6.03;;;1.90;;
13933;SDS011;7039;52.168;9.866;2023-05-19T19:42:03;3.90;;;1.70;;
13933;SDS011;7039;52.168;9.866;2023-05-19T19:44:30;4.50;;;1.90;;
13933;SDS011;7039;52.168;9.866;2023-05-19T19:46:56;2.90;;;1.57;;
13933;SDS011;7039;52.168;9.866;2023-05-19T19:49:23;2.80;;;1.80;;
13933;SDS011;7039;52.168;9.866;2023-05-19T19:51:50;2.20;;;1.70;;
13933;SDS011;7039;52.168;9.866;2023-05-19T19:54:16;2.77;;;1.67;;
13933;SDS011;7039;52.168;9.866;2023-05-19T19:56:43;2.47;;;1.80;;
13933;SDS011;7039;52.168;9.866;2023-05-19T19:59:11;4.33;;;1.70;;
13933;SDS011;7039;52.168;9.866;2023-05-19T20:01:37;4.10;;;1.80;;
13933;SDS011;7039;52.168;9.866;2023-05-19T20:04:04;4.07;;;1.90;;
13933;SDS011;7039;52.168;9.866;2023-05-19T20:06:34;3.57;;;1.73;;
13933;SDS011;7039;52.168;9.866;2023-05-19T20:14:47;2.70;;;1.73;;
13933;SDS011;7039;52.168;9.866;2023-05-19T20:17:15;7.53;;;1.97;;
13933;SDS011;7039;52.168;9.866;2023-05-19T20:19:42;1.93;;;1.70;;
13933;SDS011;7039;52.168;9.866;2023-05-19T21:06:07;4.57;;;1.67;;
13933;SDS011;7039;52.168;9.866;2023-05-19T21:21:43;2.83;;;1.83;;
13933;SDS011;7039;52.168;9.866;2023-05-19T21:43:12;4.60;;;1.53;;
13933;SDS011;7039;52.168;9.866;2023-05-19T22:12:25;4.73;;;1.83;;
13933;SDS011;7039;52.168;9.866;2023-05-19T22:23:28;5.43;;;1.83;;
13933;SDS011;7039;52.168;9.866;2023-05-19T22:58:19;4.53;;;2.13;;
13933;SDS011;7039;52.168;9.866;2023-05-19T23:01:12;6.03;;;2.17;;
13933;SDS011;7039;52.168;9.866;2023-05-19T23:03:53;2.83;;;1.97;;
13933;SDS011;7039;52.168;9.866;2023-05-19T23:06:23;4.47;;;2.20;;
13933;SDS011;7039;52.168;9.866;2023-05-19T23:08:57;6.63;;;2.30;;
13933;SDS011;7039;52.168;9.866;2023-05-19T23:11:39;3.13;;;2.40;;
13933;SDS011;7039;52.168;9.866;2023-05-19T23:21:17;5.30;;;2.40;;
13933;SDS011;7039;52.168;9.866;2023-05-19T23:30:23;3.63;;;2.23;;
13933;SDS011;7039;52.168;9.866;2023-05-19T23:32:50;5.37;;;2.33;;
13933;SDS011;7039;52.168;9.866;2023-05-19T23:35:32;2.23;;;1.90;;
13933;SDS011;7039;52.168;9.866;2023-05-19T23:38:21;4.57;;;2.40;;
13933;SDS011;7039;52.168;9.866;2023-05-19T23:41:07;2.97;;;2.30;;
13933;SDS011;7039;52.168;9.866;2023-05-19T23:43:41;3.10;;;2.40;;
13933;SDS011;7039;52.168;9.866;2023-05-19T23:46:10;4.33;;;2.23;;
13933;SDS011;7039;52.168;9.866;2023-05-19T23:48:38;7.00;;;3.47;;
13933;SDS011;7039;52.168;9.866;2023-05-19T23:51:05;3.87;;;2.20;;
13933;SDS011;7039;52.168;9.866;2023-05-19T23:53:32;3.93;;;2.17;;
13933;SDS011;7039;52.168;9.866;2023-05-19T23:56:02;3.50;;;2.30;;
13933;SDS011;7039;52.168;9.866;2023-05-19T23:58:30;4.20;;;2.10;;
